sensor_id;sensor_type;location;lat;lon;timestamp;temperature;humidity
820;DHT22;392;48.838;2.322;2023-04-29T00:01:36;15.40;48.50
820;DHT22;392;48.838;2.322;2023-04-29T00:04:03;15.40;48.90
820;DHT22;392;48.838;2.322;2023-04-29T00:06:31;15.30;49.50
820;DHT22;392;48.838;2.322;2023-04-29T00:08:58;15.30;48.80
820;DHT22;392;48.838;2.322;2023-04-29T00:11:25;15.30;49.20
820;DHT22;392;48.838;2.322;2023-04-29T00:13:53;15.30;48.80
820;DHT22;392;48.838;2.322;2023-04-29T00:16:36;15.30;49.00
820;DHT22;392;48.838;2.322;2023-04-29T00:19:04;15.20;49.40
820;DHT22;392;48.838;2.322;2023-04-29T00:21:31;15.10;49.70
820;DHT22;392;48.838;2.322;2023-04-29T00:24:17;15.10;50.50
820;DHT22;392;48.838;2.322;2023-04-29T00:26:50;15.10;50.90
820;DHT22;392;48.838;2.322;2023-04-29T00:29:18;15.10;51.10
820;DHT22;392;48.838;2.322;2023-04-29T00:31:46;15.10;51.00
820;DHT22;392;48.838;2.322;2023-04-29T00:34:26;15.10;51.00
820;DHT22;392;48.838;2.322;2023-04-29T00:36:53;15.10;51.10
820;DHT22;392;48.838;2.322;2023-04-29T00:39:47;15.10;51.20
820;DHT22;392;48.838;2.322;2023-04-29T00:42:14;15.10;51.00
820;DHT22;392;48.838;2.322;2023-04-29T00:44:41;15.10;50.80
820;DHT22;392;48.838;2.322;2023-04-29T00:47:10;15.10;50.90
820;DHT22;392;48.838;2.322;2023-04-29T00:49:38;15.00;51.10
820;DHT22;392;48.838;2.322;2023-04-29T00:52:05;15.10;51.30
820;DHT22;392;48.838;2.322;2023-04-29T00:54:34;15.00;50.80
820;DHT22;392;48.838;2.322;2023-04-29T00:57:01;15.10;50.80
820;DHT22;392;48.838;2.322;2023-04-29T00:59:32;15.00;50.70
820;DHT22;392;48.838;2.322;2023-04-29T01:02:00;15.00;51.30
820;DHT22;392;48.838;2.322;2023-04-29T01:04:30;14.90;51.50
820;DHT22;392;48.838;2.322;2023-04-29T01:07:03;14.90;52.00
820;DHT22;392;48.838;2.322;2023-04-29T01:09:51;14.90;52.20
820;DHT22;392;48.838;2.322;2023-04-29T01:12:25;14.90;52.00
820;DHT22;392;48.838;2.322;2023-04-29T01:15:03;14.90;51.70
820;DHT22;392;48.838;2.322;2023-04-29T01:17:38;14.80;52.10
820;DHT22;392;48.838;2.322;2023-04-29T01:20:10;14.80;52.30
820;DHT22;392;48.838;2.322;2023-04-29T01:22:39;14.80;52.60
820;DHT22;392;48.838;2.322;2023-04-29T01:25:08;14.80;52.40
820;DHT22;392;48.838;2.322;2023-04-29T01:28:04;14.80;52.20
820;DHT22;392;48.838;2.322;2023-04-29T01:30:41;14.80;52.90
820;DHT22;392;48.838;2.322;2023-04-29T01:33:19;14.70;52.40
820;DHT22;392;48.838;2.322;2023-04-29T01:36:03;14.70;53.10
820;DHT22;392;48.838;2.322;2023-04-29T01:38:38;14.60;53.00
820;DHT22;392;48.838;2.322;2023-04-29T01:41:15;14.60;53.00
820;DHT22;392;48.838;2.322;2023-04-29T01:43:50;14.60;53.10
820;DHT22;392;48.838;2.322;2023-04-29T01:46:23;14.50;53.50
820;DHT22;392;48.838;2.322;2023-04-29T01:48:55;14.50;54.10
820;DHT22;392;48.838;2.322;2023-04-29T01:51:23;14.50;54.20
820;DHT22;392;48.838;2.322;2023-04-29T01:53:50;14.50;54.50
820;DHT22;392;48.838;2.322;2023-04-29T01:56:19;14.50;54.60
820;DHT22;392;48.838;2.322;2023-04-29T01:59:06;14.60;54.40
820;DHT22;392;48.838;2.322;2023-04-29T02:01:34;14.60;54.30
820;DHT22;392;48.838;2.322;2023-04-29T02:04:02;14.60;54.20
820;DHT22;392;48.838;2.322;2023-04-29T02:06:30;14.50;53.80
820;DHT22;392;48.838;2.322;2023-04-29T02:09:01;14.50;54.10
820;DHT22;392;48.838;2.322;2023-04-29T02:11:32;14.50;54.50
820;DHT22;392;48.838;2.322;2023-04-29T02:14:00;14.50;54.50
820;DHT22;392;48.838;2.322;2023-04-29T02:16:28;14.40;54.60
820;DHT22;392;48.838;2.322;2023-04-29T02:19:01;14.40;55.00
820;DHT22;392;48.838;2.322;2023-04-29T02:21:29;14.40;55.10
820;DHT22;392;48.838;2.322;2023-04-29T02:24:00;14.40;54.80
820;DHT22;392;48.838;2.322;2023-04-29T02:26:27;14.40;55.10
820;DHT22;392;48.838;2.322;2023-04-29T02:28:56;14.30;55.20
820;DHT22;392;48.838;2.322;2023-04-29T02:31:24;14.40;56.00
820;DHT22;392;48.838;2.322;2023-04-29T02:33:53;14.30;55.10
820;DHT22;392;48.838;2.322;2023-04-29T02:36:21;14.30;55.40
820;DHT22;392;48.838;2.322;2023-04-29T02:38:51;14.30;55.60
820;DHT22;392;48.838;2.322;2023-04-29T02:41:20;14.30;56.10
820;DHT22;392;48.838;2.322;2023-04-29T02:43:48;14.30;56.00
820;DHT22;392;48.838;2.322;2023-04-29T02:46:17;14.30;55.60
820;DHT22;392;48.838;2.322;2023-04-29T02:49:03;14.30;55.50
820;DHT22;392;48.838;2.322;2023-04-29T02:51:31;14.20;55.70
820;DHT22;392;48.838;2.322;2023-04-29T02:53:58;14.20;56.00
820;DHT22;392;48.838;2.322;2023-04-29T02:56:25;14.20;56.10
820;DHT22;392;48.838;2.322;2023-04-29T02:58:53;14.20;56.70
820;DHT22;392;48.838;2.322;2023-04-29T03:01:22;14.20;56.70
820;DHT22;392;48.838;2.322;2023-04-29T03:03:50;14.10;56.90
820;DHT22;392;48.838;2.322;2023-04-29T03:06:18;14.20;57.00
820;DHT22;392;48.838;2.322;2023-04-29T03:08:45;14.20;57.30
820;DHT22;392;48.838;2.322;2023-04-29T03:11:13;14.20;57.20
820;DHT22;392;48.838;2.322;2023-04-29T03:13:40;14.10;57.00
820;DHT22;392;48.838;2.322;2023-04-29T03:16:08;14.10;57.00
820;DHT22;392;48.838;2.322;2023-04-29T03:18:36;14.10;57.40
820;DHT22;392;48.838;2.322;2023-04-29T03:21:04;14.10;57.40
820;DHT22;392;48.838;2.322;2023-04-29T03:23:31;14.00;57.30
820;DHT22;392;48.838;2.322;2023-04-29T03:26:00;14.00;57.30
820;DHT22;392;48.838;2.322;2023-04-29T03:28:28;14.10;57.40
820;DHT22;392;48.838;2.322;2023-04-29T03:30:55;14.00;57.30
820;DHT22;392;48.838;2.322;2023-04-29T03:33:24;14.00;57.60
820;DHT22;392;48.838;2.322;2023-04-29T03:35:53;13.90;57.70
820;DHT22;392;48.838;2.322;2023-04-29T03:38:36;13.90;58.00
820;DHT22;392;48.838;2.322;2023-04-29T03:41:04;14.00;58.20
820;DHT22;392;48.838;2.322;2023-04-29T03:43:32;13.90;58.40
820;DHT22;392;48.838;2.322;2023-04-29T03:45:59;14.00;58.30
820;DHT22;392;48.838;2.322;2023-04-29T03:48:27;14.00;58.30
820;DHT22;392;48.838;2.322;2023-04-29T03:50:56;13.90;58.80
820;DHT22;392;48.838;2.322;2023-04-29T03:53:23;14.00;58.10
820;DHT22;392;48.838;2.322;2023-04-29T03:55:52;13.90;57.60
820;DHT22;392;48.838;2.322;2023-04-29T03:58:20;13.90;57.50
820;DHT22;392;48.838;2.322;2023-04-29T04:00:48;13.90;57.40
820;DHT22;392;48.838;2.322;2023-04-29T04:03:21;13.90;57.80
820;DHT22;392;48.838;2.322;2023-04-29T04:05:50;13.90;58.00
820;DHT22;392;48.838;2.322;2023-04-29T04:08:19;14.00;57.60
820;DHT22;392;48.838;2.322;2023-04-29T04:10:51;13.90;57.30
820;DHT22;392;48.838;2.322;2023-04-29T04:13:45;13.90;58.00
820;DHT22;392;48.838;2.322;2023-04-29T04:16:12;13.90;59.10
820;DHT22;392;48.838;2.322;2023-04-29T04:18:40;13.90;58.30
820;DHT22;392;48.838;2.322;2023-04-29T04:21:08;13.90;58.40
820;DHT22;392;48.838;2.322;2023-04-29T04:23:39;13.90;58.20
820;DHT22;392;48.838;2.322;2023-04-29T04:26:07;13.90;57.80
820;DHT22;392;48.838;2.322;2023-04-29T04:28:55;13.80;57.80
820;DHT22;392;48.838;2.322;2023-04-29T04:31:31;13.80;58.30
820;DHT22;392;48.838;2.322;2023-04-29T04:33:59;13.80;58.50
820;DHT22;392;48.838;2.322;2023-04-29T04:36:28;13.80;58.60
820;DHT22;392;48.838;2.322;2023-04-29T04:38:57;13.90;58.80
820;DHT22;392;48.838;2.322;2023-04-29T04:41:24;13.90;58.20
820;DHT22;392;48.838;2.322;2023-04-29T04:43:52;13.80;57.90
820;DHT22;392;48.838;2.322;2023-04-29T04:46:32;13.80;58.30
820;DHT22;392;48.838;2.322;2023-04-29T04:49:13;13.80;58.70
820;DHT22;392;48.838;2.322;2023-04-29T04:51:48;13.80;58.50
820;DHT22;392;48.838;2.322;2023-04-29T04:54:17;13.80;58.40
820;DHT22;392;48.838;2.322;2023-04-29T04:56:49;13.80;58.30
820;DHT22;392;48.838;2.322;2023-04-29T04:59:16;13.70;58.20
820;DHT22;392;48.838;2.322;2023-04-29T05:01:44;13.70;59.50
820;DHT22;392;48.838;2.322;2023-04-29T05:04:12;13.60;58.90
820;DHT22;392;48.838;2.322;2023-04-29T05:06:40;13.60;59.40
820;DHT22;392;48.838;2.322;2023-04-29T05:09:07;13.60;59.70
820;DHT22;392;48.838;2.322;2023-04-29T05:11:37;13.50;60.60
820;DHT22;392;48.838;2.322;2023-04-29T05:14:09;13.50;60.30
820;DHT22;392;48.838;2.322;2023-04-29T05:16:36;13.50;60.70
820;DHT22;392;48.838;2.322;2023-04-29T05:19:04;13.50;60.90
820;DHT22;392;48.838;2.322;2023-04-29T05:21:35;13.50;61.50
820;DHT22;392;48.838;2.322;2023-04-29T05:24:03;13.40;61.50
820;DHT22;392;48.838;2.322;2023-04-29T05:26:31;13.40;61.70
820;DHT22;392;48.838;2.322;2023-04-29T05:29:01;13.30;62.00
820;DHT22;392;48.838;2.322;2023-04-29T05:31:35;13.30;62.70
820;DHT22;392;48.838;2.322;2023-04-29T05:34:03;13.20;63.20
820;DHT22;392;48.838;2.322;2023-04-29T05:36:31;13.20;63.90
820;DHT22;392;48.838;2.322;2023-04-29T05:38:58;13.20;64.30
820;DHT22;392;48.838;2.322;2023-04-29T05:41:25;13.20;65.00
820;DHT22;392;48.838;2.322;2023-04-29T05:44:14;13.20;65.80
820;DHT22;392;48.838;2.322;2023-04-29T05:46:42;13.20;65.20
820;DHT22;392;48.838;2.322;2023-04-29T05:49:09;13.20;66.30
820;DHT22;392;48.838;2.322;2023-04-29T05:51:36;13.20;65.90
820;DHT22;392;48.838;2.322;2023-04-29T05:54:04;13.30;65.80
820;DHT22;392;48.838;2.322;2023-04-29T05:56:31;13.30;65.30
820;DHT22;392;48.838;2.322;2023-04-29T05:58:59;13.40;64.80
820;DHT22;392;48.838;2.322;2023-04-29T06:01:27;13.40;64.70
820;DHT22;392;48.838;2.322;2023-04-29T06:03:56;13.40;64.20
820;DHT22;392;48.838;2.322;2023-04-29T06:06:29;13.40;64.30
820;DHT22;392;48.838;2.322;2023-04-29T06:09:22;13.40;63.80
820;DHT22;392;48.838;2.322;2023-04-29T06:11:50;13.40;63.70
820;DHT22;392;48.838;2.322;2023-04-29T06:14:20;13.30;63.30
820;DHT22;392;48.838;2.322;2023-04-29T06:16:49;13.30;63.90
820;DHT22;392;48.838;2.322;2023-04-29T06:19:16;13.30;64.40
820;DHT22;392;48.838;2.322;2023-04-29T06:21:44;13.30;65.00
820;DHT22;392;48.838;2.322;2023-04-29T06:24:11;13.30;65.10
820;DHT22;392;48.838;2.322;2023-04-29T06:26:38;13.40;65.60
820;DHT22;392;48.838;2.322;2023-04-29T06:29:05;13.40;64.80
820;DHT22;392;48.838;2.322;2023-04-29T06:31:34;13.40;64.90
820;DHT22;392;48.838;2.322;2023-04-29T06:34:05;13.40;65.30
820;DHT22;392;48.838;2.322;2023-04-29T06:36:36;13.40;64.80
820;DHT22;392;48.838;2.322;2023-04-29T06:39:19;13.40;65.40
820;DHT22;392;48.838;2.322;2023-04-29T06:41:59;13.40;64.60
820;DHT22;392;48.838;2.322;2023-04-29T06:44:50;13.30;64.30
820;DHT22;392;48.838;2.322;2023-04-29T06:47:35;13.30;65.70
820;DHT22;392;48.838;2.322;2023-04-29T06:50:14;13.30;65.50
820;DHT22;392;48.838;2.322;2023-04-29T06:52:43;13.30;65.80
820;DHT22;392;48.838;2.322;2023-04-29T06:55:10;13.20;65.90
820;DHT22;392;48.838;2.322;2023-04-29T06:57:41;13.20;66.20
820;DHT22;392;48.838;2.322;2023-04-29T07:00:08;13.10;67.20
820;DHT22;392;48.838;2.322;2023-04-29T07:02:36;13.10;68.10
820;DHT22;392;48.838;2.322;2023-04-29T07:05:05;13.20;68.90
820;DHT22;392;48.838;2.322;2023-04-29T07:07:35;13.30;69.30
820;DHT22;392;48.838;2.322;2023-04-29T07:10:03;13.30;69.40
820;DHT22;392;48.838;2.322;2023-04-29T07:12:31;13.30;69.60
820;DHT22;392;48.838;2.322;2023-04-29T07:14:58;13.40;68.90
820;DHT22;392;48.838;2.322;2023-04-29T07:17:28;13.40;68.00
820;DHT22;392;48.838;2.322;2023-04-29T07:19:56;13.30;67.70
820;DHT22;392;48.838;2.322;2023-04-29T07:22:24;13.30;68.30
820;DHT22;392;48.838;2.322;2023-04-29T07:24:53;13.30;68.20
820;DHT22;392;48.838;2.322;2023-04-29T07:27:22;13.30;68.50
820;DHT22;392;48.838;2.322;2023-04-29T07:29:51;13.30;68.10
820;DHT22;392;48.838;2.322;2023-04-29T07:32:18;13.30;67.90
820;DHT22;392;48.838;2.322;2023-04-29T07:34:45;13.30;68.10
820;DHT22;392;48.838;2.322;2023-04-29T07:37:14;13.40;68.00
820;DHT22;392;48.838;2.322;2023-04-29T07:39:41;13.30;67.40
820;DHT22;392;48.838;2.322;2023-04-29T07:42:11;13.30;67.10
820;DHT22;392;48.838;2.322;2023-04-29T07:44:38;13.30;67.60
820;DHT22;392;48.838;2.322;2023-04-29T07:47:05;13.30;67.70
820;DHT22;392;48.838;2.322;2023-04-29T07:49:33;13.30;67.40
820;DHT22;392;48.838;2.322;2023-04-29T07:52:01;13.20;67.80
820;DHT22;392;48.838;2.322;2023-04-29T07:54:28;13.20;68.20
820;DHT22;392;48.838;2.322;2023-04-29T07:56:57;13.20;68.70
820;DHT22;392;48.838;2.322;2023-04-29T07:59:26;13.30;69.50
820;DHT22;392;48.838;2.322;2023-04-29T08:01:54;13.40;70.00
820;DHT22;392;48.838;2.322;2023-04-29T08:04:22;13.50;69.50
820;DHT22;392;48.838;2.322;2023-04-29T08:06:58;13.60;68.60
820;DHT22;392;48.838;2.322;2023-04-29T08:09:25;13.70;66.90
820;DHT22;392;48.838;2.322;2023-04-29T08:11:52;13.70;65.40
820;DHT22;392;48.838;2.322;2023-04-29T08:14:20;13.70;64.90
820;DHT22;392;48.838;2.322;2023-04-29T08:16:48;13.70;64.50
820;DHT22;392;48.838;2.322;2023-04-29T08:19:16;13.70;64.30
820;DHT22;392;48.838;2.322;2023-04-29T08:21:43;13.70;63.10
820;DHT22;392;48.838;2.322;2023-04-29T08:24:10;13.60;62.70
820;DHT22;392;48.838;2.322;2023-04-29T08:26:39;13.50;63.00
820;DHT22;392;48.838;2.322;2023-04-29T08:29:07;13.50;63.90
820;DHT22;392;48.838;2.322;2023-04-29T08:31:34;13.50;63.60
820;DHT22;392;48.838;2.322;2023-04-29T08:34:03;13.50;63.20
820;DHT22;392;48.838;2.322;2023-04-29T08:36:30;13.50;63.10
820;DHT22;392;48.838;2.322;2023-04-29T08:38:58;13.50;62.70
820;DHT22;392;48.838;2.322;2023-04-29T08:41:26;13.60;62.90
820;DHT22;392;48.838;2.322;2023-04-29T08:43:53;13.60;62.20
820;DHT22;392;48.838;2.322;2023-04-29T08:46:23;13.70;61.80
820;DHT22;392;48.838;2.322;2023-04-29T08:48:52;13.80;61.20
820;DHT22;392;48.838;2.322;2023-04-29T08:51:22;13.80;60.60
820;DHT22;392;48.838;2.322;2023-04-29T08:53:50;13.90;60.10
820;DHT22;392;48.838;2.322;2023-04-29T08:56:18;14.00;59.80
820;DHT22;392;48.838;2.322;2023-04-29T08:58:47;14.10;59.00
820;DHT22;392;48.838;2.322;2023-04-29T09:01:16;14.10;57.40
820;DHT22;392;48.838;2.322;2023-04-29T09:03:49;14.20;57.10
820;DHT22;392;48.838;2.322;2023-04-29T09:06:23;14.30;56.60
820;DHT22;392;48.838;2.322;2023-04-29T09:08:50;14.40;55.80
820;DHT22;392;48.838;2.322;2023-04-29T09:11:18;14.40;54.90
820;DHT22;392;48.838;2.322;2023-04-29T09:13:46;14.40;53.70
820;DHT22;392;48.838;2.322;2023-04-29T09:16:13;14.50;53.60
820;DHT22;392;48.838;2.322;2023-04-29T09:18:42;14.50;53.40
820;DHT22;392;48.838;2.322;2023-04-29T09:21:15;14.50;53.00
820;DHT22;392;48.838;2.322;2023-04-29T09:23:45;14.50;52.80
820;DHT22;392;48.838;2.322;2023-04-29T09:26:14;14.60;52.50
820;DHT22;392;48.838;2.322;2023-04-29T09:28:42;14.60;52.30
820;DHT22;392;48.838;2.322;2023-04-29T09:31:10;14.70;52.30
820;DHT22;392;48.838;2.322;2023-04-29T09:33:52;14.70;51.80
820;DHT22;392;48.838;2.322;2023-04-29T09:36:36;14.70;51.50
820;DHT22;392;48.838;2.322;2023-04-29T09:39:12;14.80;51.50
820;DHT22;392;48.838;2.322;2023-04-29T09:41:57;14.80;51.30
820;DHT22;392;48.838;2.322;2023-04-29T09:44:29;14.80;51.20
820;DHT22;392;48.838;2.322;2023-04-29T09:46:58;14.70;50.70
820;DHT22;392;48.838;2.322;2023-04-29T09:49:29;14.80;51.30
820;DHT22;392;48.838;2.322;2023-04-29T09:51:58;14.90;51.40
820;DHT22;392;48.838;2.322;2023-04-29T09:54:29;14.90;50.70
820;DHT22;392;48.838;2.322;2023-04-29T09:56:59;15.00;50.30
820;DHT22;392;48.838;2.322;2023-04-29T09:59:31;15.10;49.50
820;DHT22;392;48.838;2.322;2023-04-29T10:02:01;15.10;48.90
820;DHT22;392;48.838;2.322;2023-04-29T10:04:34;15.10;48.80
820;DHT22;392;48.838;2.322;2023-04-29T10:07:07;15.10;48.50
820;DHT22;392;48.838;2.322;2023-04-29T10:09:36;15.10;47.30
820;DHT22;392;48.838;2.322;2023-04-29T10:12:06;15.10;47.40
820;DHT22;392;48.838;2.322;2023-04-29T10:14:38;15.00;46.70
820;DHT22;392;48.838;2.322;2023-04-29T10:17:13;15.00;46.60
820;DHT22;392;48.838;2.322;2023-04-29T10:19:46;15.00;46.60
820;DHT22;392;48.838;2.322;2023-04-29T10:22:28;15.10;46.60
820;DHT22;392;48.838;2.322;2023-04-29T10:25:02;15.20;46.10
820;DHT22;392;48.838;2.322;2023-04-29T10:27:33;15.40;45.40
820;DHT22;392;48.838;2.322;2023-04-29T10:30:05;15.60;43.80
820;DHT22;392;48.838;2.322;2023-04-29T10:32:34;15.70;42.30
820;DHT22;392;48.838;2.322;2023-04-29T10:35:04;15.90;41.40
820;DHT22;392;48.838;2.322;2023-04-29T10:37:34;16.00;39.70
820;DHT22;392;48.838;2.322;2023-04-29T10:40:11;16.10;39.60
820;DHT22;392;48.838;2.322;2023-04-29T10:42:44;16.20;39.10
820;DHT22;392;48.838;2.322;2023-04-29T10:45:19;16.20;38.50
820;DHT22;392;48.838;2.322;2023-04-29T10:48:10;16.20;38.00
820;DHT22;392;48.838;2.322;2023-04-29T10:50:59;16.20;37.30
820;DHT22;392;48.838;2.322;2023-04-29T10:53:27;16.20;37.50
820;DHT22;392;48.838;2.322;2023-04-29T10:56:02;16.20;36.90
820;DHT22;392;48.838;2.322;2023-04-29T10:58:40;16.30;36.40
820;DHT22;392;48.838;2.322;2023-04-29T11:01:14;16.30;35.50
820;DHT22;392;48.838;2.322;2023-04-29T11:03:50;16.40;35.10
820;DHT22;392;48.838;2.322;2023-04-29T11:06:25;16.60;34.40
820;DHT22;392;48.838;2.322;2023-04-29T11:09:11;16.70;32.80
820;DHT22;392;48.838;2.322;2023-04-29T11:12:00;16.70;32.60
820;DHT22;392;48.838;2.322;2023-04-29T11:14:33;16.80;31.70
820;DHT22;392;48.838;2.322;2023-04-29T11:17:04;16.90;31.30
820;DHT22;392;48.838;2.322;2023-04-29T11:19:35;16.90;30.90
820;DHT22;392;48.838;2.322;2023-04-29T11:22:23;17.00;31.00
820;DHT22;392;48.838;2.322;2023-04-29T11:24:53;17.20;30.50
820;DHT22;392;48.838;2.322;2023-04-29T11:27:24;17.30;29.50
820;DHT22;392;48.838;2.322;2023-04-29T11:29:53;17.50;28.90
820;DHT22;392;48.838;2.322;2023-04-29T11:32:24;17.80;28.60
820;DHT22;392;48.838;2.322;2023-04-29T11:34:52;18.10;27.30
820;DHT22;392;48.838;2.322;2023-04-29T11:37:21;18.20;26.80
820;DHT22;392;48.838;2.322;2023-04-29T11:39:50;18.30;26.50
820;DHT22;392;48.838;2.322;2023-04-29T11:42:22;18.30;26.60
820;DHT22;392;48.838;2.322;2023-04-29T11:44:53;18.20;26.70
820;DHT22;392;48.838;2.322;2023-04-29T11:47:25;18.20;26.90
820;DHT22;392;48.838;2.322;2023-04-29T11:50:02;18.30;26.70
820;DHT22;392;48.838;2.322;2023-04-29T11:52:30;18.20;26.20
820;DHT22;392;48.838;2.322;2023-04-29T11:54:58;18.20;26.10
820;DHT22;392;48.838;2.322;2023-04-29T11:57:26;18.30;26.00
820;DHT22;392;48.838;2.322;2023-04-29T11:59:54;18.60;26.20
820;DHT22;392;48.838;2.322;2023-04-29T12:02:28;18.80;24.50
820;DHT22;392;48.838;2.322;2023-04-29T12:04:56;18.90;24.50
820;DHT22;392;48.838;2.322;2023-04-29T12:07:23;18.80;24.60
820;DHT22;392;48.838;2.322;2023-04-29T12:09:50;18.60;25.40
820;DHT22;392;48.838;2.322;2023-04-29T12:12:18;18.60;25.50
820;DHT22;392;48.838;2.322;2023-04-29T12:14:47;18.60;25.90
820;DHT22;392;48.838;2.322;2023-04-29T12:17:15;18.60;25.10
820;DHT22;392;48.838;2.322;2023-04-29T12:19:43;18.60;25.00
820;DHT22;392;48.838;2.322;2023-04-29T12:22:11;18.50;25.20
820;DHT22;392;48.838;2.322;2023-04-29T12:24:39;18.30;25.60
820;DHT22;392;48.838;2.322;2023-04-29T12:27:07;18.10;26.40
820;DHT22;392;48.838;2.322;2023-04-29T12:29:36;17.90;27.30
820;DHT22;392;48.838;2.322;2023-04-29T12:32:06;17.90;27.00
820;DHT22;392;48.838;2.322;2023-04-29T12:34:34;18.00;27.60
820;DHT22;392;48.838;2.322;2023-04-29T12:37:01;18.20;27.60
820;DHT22;392;48.838;2.322;2023-04-29T12:39:29;18.30;27.00
820;DHT22;392;48.838;2.322;2023-04-29T12:41:58;18.50;26.40
820;DHT22;392;48.838;2.322;2023-04-29T12:44:34;18.50;25.50
820;DHT22;392;48.838;2.322;2023-04-29T12:47:07;18.30;25.30
820;DHT22;392;48.838;2.322;2023-04-29T12:49:35;18.20;26.10
820;DHT22;392;48.838;2.322;2023-04-29T12:52:03;18.10;26.30
820;DHT22;392;48.838;2.322;2023-04-29T12:54:34;18.10;26.50
820;DHT22;392;48.838;2.322;2023-04-29T12:57:02;18.20;26.00
820;DHT22;392;48.838;2.322;2023-04-29T12:59:30;18.20;26.10
820;DHT22;392;48.838;2.322;2023-04-29T13:01:57;18.30;26.00
820;DHT22;392;48.838;2.322;2023-04-29T13:04:26;18.30;25.90
820;DHT22;392;48.838;2.322;2023-04-29T13:06:53;18.30;25.80
820;DHT22;392;48.838;2.322;2023-04-29T13:09:25;18.40;25.60
820;DHT22;392;48.838;2.322;2023-04-29T13:11:52;18.50;25.40
820;DHT22;392;48.838;2.322;2023-04-29T13:14:20;18.60;25.40
820;DHT22;392;48.838;2.322;2023-04-29T13:16:47;18.60;25.10
820;DHT22;392;48.838;2.322;2023-04-29T13:19:15;18.70;25.40
820;DHT22;392;48.838;2.322;2023-04-29T13:21:43;18.70;24.80
820;DHT22;392;48.838;2.322;2023-04-29T13:24:11;18.60;25.50
820;DHT22;392;48.838;2.322;2023-04-29T13:26:38;18.60;25.30
820;DHT22;392;48.838;2.322;2023-04-29T13:29:06;18.70;24.60
820;DHT22;392;48.838;2.322;2023-04-29T13:31:33;18.60;24.70
820;DHT22;392;48.838;2.322;2023-04-29T13:34:00;18.60;24.80
820;DHT22;392;48.838;2.322;2023-04-29T13:36:28;18.50;25.00
820;DHT22;392;48.838;2.322;2023-04-29T13:38:56;18.60;24.90
820;DHT22;392;48.838;2.322;2023-04-29T13:41:23;18.60;24.80
820;DHT22;392;48.838;2.322;2023-04-29T13:43:51;18.80;24.70
820;DHT22;392;48.838;2.322;2023-04-29T13:46:18;19.00;23.80
820;DHT22;392;48.838;2.322;2023-04-29T13:48:46;18.90;23.90
820;DHT22;392;48.838;2.322;2023-04-29T13:51:13;19.00;23.70
820;DHT22;392;48.838;2.322;2023-04-29T13:53:40;19.00;23.50
820;DHT22;392;48.838;2.322;2023-04-29T13:56:09;19.20;23.00
820;DHT22;392;48.838;2.322;2023-04-29T13:58:36;19.40;22.70
820;DHT22;392;48.838;2.322;2023-04-29T14:01:04;19.40;22.30
820;DHT22;392;48.838;2.322;2023-04-29T14:03:32;19.50;22.30
820;DHT22;392;48.838;2.322;2023-04-29T14:05:59;19.60;22.20
820;DHT22;392;48.838;2.322;2023-04-29T14:08:27;19.70;22.40
820;DHT22;392;48.838;2.322;2023-04-29T14:10:54;19.80;21.50
820;DHT22;392;48.838;2.322;2023-04-29T14:13:24;19.60;21.40
820;DHT22;392;48.838;2.322;2023-04-29T14:15:52;19.20;22.10
820;DHT22;392;48.838;2.322;2023-04-29T14:18:21;19.00;22.60
820;DHT22;392;48.838;2.322;2023-04-29T14:20:48;18.90;22.90
820;DHT22;392;48.838;2.322;2023-04-29T14:23:16;18.80;23.20
820;DHT22;392;48.838;2.322;2023-04-29T14:25:43;18.70;23.30
820;DHT22;392;48.838;2.322;2023-04-29T14:28:12;18.70;23.20
820;DHT22;392;48.838;2.322;2023-04-29T14:30:40;18.70;23.50
820;DHT22;392;48.838;2.322;2023-04-29T14:33:08;18.80;23.30
820;DHT22;392;48.838;2.322;2023-04-29T14:35:35;18.90;22.90
820;DHT22;392;48.838;2.322;2023-04-29T14:38:03;18.90;22.80
820;DHT22;392;48.838;2.322;2023-04-29T14:40:30;18.90;22.50
820;DHT22;392;48.838;2.322;2023-04-29T14:42:57;18.70;22.60
820;DHT22;392;48.838;2.322;2023-04-29T14:45:25;18.50;23.00
820;DHT22;392;48.838;2.322;2023-04-29T14:47:54;18.40;23.30
820;DHT22;392;48.838;2.322;2023-04-29T14:50:21;18.20;23.60
820;DHT22;392;48.838;2.322;2023-04-29T14:52:50;18.20;23.90
820;DHT22;392;48.838;2.322;2023-04-29T14:55:17;18.20;23.80
820;DHT22;392;48.838;2.322;2023-04-29T14:57:44;18.20;23.80
820;DHT22;392;48.838;2.322;2023-04-29T15:00:13;18.10;23.50
820;DHT22;392;48.838;2.322;2023-04-29T15:02:41;18.00;23.70
820;DHT22;392;48.838;2.322;2023-04-29T15:05:09;17.90;23.90
820;DHT22;392;48.838;2.322;2023-04-29T15:07:36;17.90;24.20
820;DHT22;392;48.838;2.322;2023-04-29T15:10:05;17.90;24.20
820;DHT22;392;48.838;2.322;2023-04-29T15:12:34;18.00;23.90
820;DHT22;392;48.838;2.322;2023-04-29T15:15:01;18.00;23.70
820;DHT22;392;48.838;2.322;2023-04-29T15:17:29;18.10;23.40
820;DHT22;392;48.838;2.322;2023-04-29T15:19:56;18.20;23.30
820;DHT22;392;48.838;2.322;2023-04-29T15:22:25;18.10;22.80
820;DHT22;392;48.838;2.322;2023-04-29T15:24:52;18.00;23.30
820;DHT22;392;48.838;2.322;2023-04-29T15:27:20;17.80;23.20
820;DHT22;392;48.838;2.322;2023-04-29T15:29:47;17.70;23.60
820;DHT22;392;48.838;2.322;2023-04-29T15:32:15;17.60;24.00
820;DHT22;392;48.838;2.322;2023-04-29T15:34:43;17.60;24.00
820;DHT22;392;48.838;2.322;2023-04-29T15:37:10;17.60;23.90
820;DHT22;392;48.838;2.322;2023-04-29T15:39:39;17.50;24.10
820;DHT22;392;48.838;2.322;2023-04-29T15:42:06;17.50;24.00
820;DHT22;392;48.838;2.322;2023-04-29T15:44:34;17.40;23.90
820;DHT22;392;48.838;2.322;2023-04-29T15:47:01;17.40;24.10
820;DHT22;392;48.838;2.322;2023-04-29T15:49:29;17.30;24.40
820;DHT22;392;48.838;2.322;2023-04-29T15:51:56;17.40;24.70
820;DHT22;392;48.838;2.322;2023-04-29T15:54:23;17.40;24.60
820;DHT22;392;48.838;2.322;2023-04-29T15:56:52;17.30;24.90
820;DHT22;392;48.838;2.322;2023-04-29T15:59:21;17.20;25.10
820;DHT22;392;48.838;2.322;2023-04-29T16:01:48;17.10;24.90
820;DHT22;392;48.838;2.322;2023-04-29T16:04:15;17.10;25.00
820;DHT22;392;48.838;2.322;2023-04-29T16:06:43;17.00;25.00
820;DHT22;392;48.838;2.322;2023-04-29T16:09:10;17.00;25.10
820;DHT22;392;48.838;2.322;2023-04-29T16:11:37;17.10;25.20
820;DHT22;392;48.838;2.322;2023-04-29T16:14:06;17.20;25.00
820;DHT22;392;48.838;2.322;2023-04-29T16:16:33;17.20;24.90
820;DHT22;392;48.838;2.322;2023-04-29T16:19:01;17.30;24.80
820;DHT22;392;48.838;2.322;2023-04-29T16:21:28;17.30;25.00
820;DHT22;392;48.838;2.322;2023-04-29T16:23:56;17.20;25.10
820;DHT22;392;48.838;2.322;2023-04-29T16:26:24;17.10;25.40
820;DHT22;392;48.838;2.322;2023-04-29T16:28:51;17.00;25.50
820;DHT22;392;48.838;2.322;2023-04-29T16:31:20;16.90;25.60
820;DHT22;392;48.838;2.322;2023-04-29T16:33:48;16.70;25.90
820;DHT22;392;48.838;2.322;2023-04-29T16:36:15;16.60;26.10
820;DHT22;392;48.838;2.322;2023-04-29T16:38:43;16.60;26.10
820;DHT22;392;48.838;2.322;2023-04-29T16:41:10;16.70;25.90
820;DHT22;392;48.838;2.322;2023-04-29T16:43:38;16.80;25.60
820;DHT22;392;48.838;2.322;2023-04-29T16:46:05;16.80;26.00
820;DHT22;392;48.838;2.322;2023-04-29T16:48:34;16.90;25.20
820;DHT22;392;48.838;2.322;2023-04-29T16:51:02;16.90;25.00
820;DHT22;392;48.838;2.322;2023-04-29T16:53:30;16.80;25.00